| time (UTC) | temp F | wind direction | speed MPH | gust MPH | rain 1hr in | rain 24hr in | rain mn in | humidity % | barometer mb |
| 20260506073019 | 72 | 287 | 1.0 | 10.0 | 0.00 | 0.08 | 0.01 | 47 | 1019.8 |
| 20260506071516 | 71 | 360 | 2.0 | 8.0 | 0.00 | 0.08 | 0.01 | 48 | 1019.9 |
| 20260506061600 | 70 | 360 | 2.0 | 8.0 | 0.00 | 0.08 | 0.01 | 53 | 1019.9 |
| 20260506050127 | 63 | 104 | 1.0 | 3.0 | 0.00 | 0.08 | 0.01 | 72 | 1019.5 |
| 20260506044529 | 60 | 336 | 0.0 | 0.0 | 0.00 | 0.08 | 0.01 | 76 | 1019.6 |
| 20260506043018 | 58 | 336 | 0.0 | 0.0 | 0.00 | 0.08 | 0.01 | 76 | 1019.3 |
| 20260506041516 | 58 | 336 | 0.0 | 0.0 | 0.00 | 0.08 | 0.01 | 76 | 1019.3 |
| 20260506040010 | 57 | 336 | 0.0 | 0.0 | 0.00 | 0.08 | 0.01 | 76 | 1019.2 |
| 20260506034507 | 56 | 336 | 0.0 | 0.0 | 0.00 | 0.08 | 0.01 | 77 | 1018.9 |
| 20260506033004 | 55 | 336 | 0.0 | 0.0 | 0.00 | 0.08 | 0.01 | 77 | 1018.5 |
| 20260506031603 | 54 | 337 | 0.0 | 0.0 | 0.00 | 0.08 | 0.01 | 76 | 1018.4 |
| 20260506030100 | 53 | 337 | 0.0 | 0.0 | 0.00 | 0.08 | 0.01 | 76 | 1018.4 |
| 20260506024555 | 53 | 337 | 0.0 | 0.0 | 0.00 | 0.08 | 0.01 | 76 | 1018.2 |
| 20260506023047 | 53 | 337 | 0.0 | 0.0 | 0.01 | 0.08 | 0.01 | 75 | 1018.1 |
| 20260506021547 | 53 | 337 | 0.0 | 0.0 | 0.01 | 0.08 | 0.01 | 75 | 1018.1 |
| 20260506020032 | 54 | 337 | 0.0 | 0.0 | 0.01 | 0.08 | 0.01 | 75 | 1018.1 |
| 20260506014526 | 53 | 337 | 0.0 | 0.0 | 0.01 | 0.08 | 0.01 | 75 | 1018.0 |
| 20260506013026 | 53 | 337 | 0.0 | 0.0 | 0.00 | 0.07 | 0.00 | 74 | 1018.0 |
| 20260506011534 | 54 | 336 | 0.0 | 0.0 | 0.00 | 0.07 | 0.00 | 74 | 1017.9 |
| 20260506010007 | 54 | 337 | 0.0 | 0.0 | 0.00 | 0.07 | 0.00 | 74 | 1017.9 |
| 20260506004517 | 54 | 336 | 0.0 | 0.0 | 0.00 | 0.07 | 0.00 | 74 | 1017.8 |
| 20260506003004 | 54 | 337 | 0.0 | 0.0 | 0.00 | 0.07 | 0.00 | 73 | 1017.8 |
| 20260506001503 | 55 | 335 | 0.0 | 0.0 | 0.00 | 0.07 | 0.00 | 73 | 1017.8 |
| 20260506000108 | 55 | 337 | 0.0 | 1.0 | 0.00 | 0.07 | 0.00 | 73 | 1018.1 |
| 20260505234557 | 55 | 337 | 0.0 | 0.0 | 0.00 | 0.07 | 0.00 | 72 | 1018.1 |
| 20260505233109 | 56 | 337 | 0.0 | 0.0 | 0.00 | 0.07 | 0.00 | 71 | 1018.1 |
| 20260505231552 | 56 | 337 | 0.0 | 0.0 | 0.00 | 0.07 | 0.00 | 71 | 1018.2 |
| 20260505230050 | 56 | 337 | 0.0 | 0.0 | 0.00 | 0.07 | 0.00 | 70 | 1018.3 |
| 20260505224547 | 57 | 337 | 0.0 | 0.0 | 0.00 | 0.07 | 0.00 | 69 | 1018.3 |
| 20260505223044 | 58 | 337 | 0.0 | 0.0 | 0.00 | 0.07 | 0.00 | 69 | 1018.3 |
| 20260505221538 | 58 | 337 | 0.0 | 0.0 | 0.00 | 0.07 | 0.00 | 69 | 1018.4 |
| 20260505220040 | 59 | 337 | 0.0 | 0.0 | 0.00 | 0.07 | 0.00 | 67 | 1018.5 |
| 20260505214535 | 59 | 337 | 0.0 | 2.0 | 0.00 | 0.07 | 0.00 | 67 | 1018.5 |
| 20260505213033 | 60 | 336 | 1.0 | 2.0 | 0.00 | 0.07 | 0.00 | 67 | 1018.6 |
| 20260505211529 | 60 | 336 | 0.0 | 2.0 | 0.00 | 0.07 | 0.00 | 65 | 1018.7 |
| 20260505210012 | 60 | 336 | 0.0 | 0.0 | 0.00 | 0.07 | 0.07 | 65 | 1018.6 |
| 20260505204513 | 60 | 336 | 0.0 | 3.0 | 0.00 | 0.07 | 0.07 | 64 | 1018.5 |
| 20260505203023 | 61 | 337 | 0.0 | 0.0 | 0.00 | 0.07 | 0.07 | 63 | 1018.6 |
| 20260505201507 | 61 | 336 | 0.0 | 1.0 | 0.00 | 0.07 | 0.07 | 62 | 1018.5 |
| 20260505200004 | 61 | 328 | 0.0 | 0.0 | 0.00 | 0.07 | 0.07 | 62 | 1018.4 |
| 20260505194502 | 61 | 328 | 0.0 | 0.0 | 0.00 | 0.07 | 0.07 | 63 | 1018.5 |
| 20260505193001 | 62 | 328 | 0.0 | 8.0 | 0.00 | 0.07 | 0.07 | 62 | 1018.6 |
| 20260505191607 | 62 | 58 | 0.0 | 3.0 | 0.00 | 0.07 | 0.07 | 63 | 1018.5 |
| 20260505190056 | 62 | 59 | 0.0 | 3.0 | 0.00 | 0.07 | 0.07 | 62 | 1018.6 |
| 20260505184601 | 62 | 59 | 0.0 | 3.0 | 0.00 | 0.07 | 0.07 | 62 | 1018.6 |
| 20260505183054 | 62 | 65 | 0.0 | 2.0 | 0.00 | 0.07 | 0.07 | 62 | 1018.6 |
| 20260505181552 | 63 | 65 | 0.0 | 2.0 | 0.00 | 0.07 | 0.07 | 62 | 1018.5 |
| 20260505180048 | 63 | 63 | 0.0 | 2.0 | 0.00 | 0.07 | 0.07 | 63 | 1018.5 |
| 20260505174546 | 63 | 63 | 0.0 | 5.0 | 0.00 | 0.07 | 0.07 | 63 | 1018.4 |
| 20260505173046 | 64 | 62 | 1.0 | 5.0 | 0.00 | 0.07 | 0.07 | 64 | 1018.2 |
| 20260505171549 | 65 | 136 | 1.0 | 4.0 | 0.00 | 0.07 | 0.07 | 63 | 1018.0 |
| 20260505170028 | 65 | 157 | 0.0 | 5.0 | 0.00 | 0.07 | 0.07 | 62 | 1017.8 |
| 20260505164526 | 65 | 175 | 1.0 | 8.0 | 0.00 | 0.07 | 0.07 | 61 | 1017.6 |
| 20260505163031 | 65 | 61 | 1.0 | 5.0 | 0.00 | 0.07 | 0.07 | 60 | 1017.6 |
| 20260505161524 | 66 | 360 | 2.0 | 8.0 | 0.00 | 0.07 | 0.07 | 59 | 1017.5 |
| 20260505153024 | 66 | 174 | 1.0 | 7.0 | 0.00 | 0.07 | 0.07 | 58 | 1017.7 |
| 20260505151520 | 66 | 159 | 0.0 | 6.0 | 0.00 | 0.07 | 0.07 | 58 | 1017.7 |
| 20260505124550 | 66 | 360 | 1.0 | 4.0 | 0.00 | 0.07 | 0.07 | 60 | 1017.2 |
| 20260505123058 | 66 | 131 | 1.0 | 8.0 | 0.00 | 0.07 | 0.07 | 61 | 1017.2 |
| 20260505121549 | 66 | 123 | 1.0 | 5.0 | 0.00 | 0.07 | 0.07 | 63 | 1017.2 |
| 20260505120054 | 66 | 360 | 2.0 | 8.0 | 0.00 | 0.07 | 0.07 | 67 | 1017.1 |
| 20260505114549 | 64 | 360 | 3.0 | 9.0 | 0.00 | 0.07 | 0.07 | 69 | 1017.2 |
| 20260505113050 | 64 | 360 | 4.0 | 10.0 | 0.01 | 0.07 | 0.07 | 69 | 1017.1 |
| 20260505111545 | 64 | 105 | 0.0 | 8.0 | 0.01 | 0.07 | 0.07 | 70 | 1017.1 |
| 20260505101537 | 63 | 360 | 6.0 | 12.0 | 0.04 | 0.06 | 0.06 | 74 | 1017.2 |
| 20260505100034 | 63 | 159 | 1.0 | 3.0 | 0.06 | 0.06 | 0.06 | 75 | 1017.2 |
| 20260505094532 | 63 | 158 | 0.0 | 2.0 | 0.06 | 0.06 | 0.06 | 73 | 1017.2 |
| 20260505093030 | 63 | 113 | 1.0 | 5.0 | 0.06 | 0.06 | 0.06 | 72 | 1017.5 |
| 20260505091530 | 64 | 163 | 2.0 | 8.0 | 0.02 | 0.02 | 0.02 | 70 | 1017.5 |
| 20260505090021 | 65 | 239 | 2.0 | 8.0 | 0.01 | 0.01 | 0.01 | 67 | 1017.4 |
| 20260505084526 | 67 | 136 | 2.0 | 8.0 | 0.00 | 0.00 | 0.00 | 63 | 1017.2 |
| 20260505083028 | 69 | 105 | 2.0 | 6.0 | 0.00 | 0.00 | 0.00 | 59 | 1017.2 |
| 20260505081517 | 71 | 360 | 3.0 | 12.0 | 0.00 | 0.00 | 0.00 | 46 | 1017.0 |